sensor_id;sensor_type;location;lat;lon;timestamp;P1;durP1;ratioP1;P2;durP2;ratioP2
45784;SDS011;31489;51.404;5.474;2023-09-12T00:00:05;18.88;;;13.77;;
45784;SDS011;31489;51.404;5.474;2023-09-12T00:02:31;16.98;;;13.50;;
45784;SDS011;31489;51.404;5.474;2023-09-12T00:04:56;16.45;;;13.25;;
45784;SDS011;31489;51.404;5.474;2023-09-12T00:07:22;13.77;;;12.32;;
45784;SDS011;31489;51.404;5.474;2023-09-12T00:09:48;18.25;;;12.75;;
45784;SDS011;31489;51.404;5.474;2023-09-12T00:12:14;17.65;;;13.45;;
45784;SDS011;31489;51.404;5.474;2023-09-12T00:14:41;18.52;;;13.85;;
45784;SDS011;31489;51.404;5.474;2023-09-12T00:17:06;15.55;;;13.57;;
45784;SDS011;31489;51.404;5.474;2023-09-12T00:19:32;14.65;;;13.15;;
45784;SDS011;31489;51.404;5.474;2023-09-12T00:21:58;19.25;;;14.23;;
45784;SDS011;31489;51.404;5.474;2023-09-12T00:24:24;17.85;;;13.98;;
45784;SDS011;31489;51.404;5.474;2023-09-12T00:26:49;14.65;;;12.95;;
45784;SDS011;31489;51.404;5.474;2023-09-12T00:29:15;14.23;;;12.02;;
45784;SDS011;31489;51.404;5.474;2023-09-12T00:31:43;17.45;;;12.32;;
45784;SDS011;31489;51.404;5.474;2023-09-12T00:34:09;15.25;;;13.38;;
45784;SDS011;31489;51.404;5.474;2023-09-12T00:36:34;20.05;;;13.43;;
45784;SDS011;31489;51.404;5.474;2023-09-12T00:39:02;15.15;;;12.35;;
45784;SDS011;31489;51.404;5.474;2023-09-12T00:41:27;16.77;;;13.80;;
45784;SDS011;31489;51.404;5.474;2023-09-12T00:43:53;16.70;;;13.18;;
45784;SDS011;31489;51.404;5.474;2023-09-12T00:46:19;14.73;;;12.88;;
45784;SDS011;31489;51.404;5.474;2023-09-12T00:48:47;18.40;;;12.73;;
45784;SDS011;31489;51.404;5.474;2023-09-12T00:51:14;19.92;;;13.00;;
45784;SDS011;31489;51.404;5.474;2023-09-12T00:53:42;15.73;;;13.05;;
45784;SDS011;31489;51.404;5.474;2023-09-12T00:56:08;17.58;;;12.20;;
45784;SDS011;31489;51.404;5.474;2023-09-12T00:58:35;16.55;;;13.65;;
45784;SDS011;31489;51.404;5.474;2023-09-12T01:01:01;18.10;;;11.85;;
45784;SDS011;31489;51.404;5.474;2023-09-12T01:03:30;15.07;;;12.63;;
45784;SDS011;31489;51.404;5.474;2023-09-12T01:05:57;15.00;;;13.30;;
45784;SDS011;31489;51.404;5.474;2023-09-12T01:08:24;16.08;;;13.40;;
45784;SDS011;31489;51.404;5.474;2023-09-12T01:10:51;15.27;;;13.43;;
45784;SDS011;31489;51.404;5.474;2023-09-12T01:13:19;16.65;;;13.63;;
45784;SDS011;31489;51.404;5.474;2023-09-12T01:15:44;16.45;;;13.18;;
45784;SDS011;31489;51.404;5.474;2023-09-12T01:18:10;16.73;;;13.15;;
45784;SDS011;31489;51.404;5.474;2023-09-12T01:20:36;14.23;;;12.82;;
45784;SDS011;31489;51.404;5.474;2023-09-12T01:28:29;18.25;;;13.55;;
45784;SDS011;31489;51.404;5.474;2023-09-12T01:30:56;15.15;;;12.98;;
45784;SDS011;31489;51.404;5.474;2023-09-12T01:33:24;16.27;;;13.35;;
45784;SDS011;31489;51.404;5.474;2023-09-12T01:35:50;19.58;;;13.98;;
45784;SDS011;31489;51.404;5.474;2023-09-12T01:38:15;17.05;;;13.52;;
45784;SDS011;31489;51.404;5.474;2023-09-12T01:40:46;15.52;;;14.00;;
45784;SDS011;31489;51.404;5.474;2023-09-12T01:43:19;19.05;;;13.63;;
45784;SDS011;31489;51.404;5.474;2023-09-12T01:45:49;16.20;;;13.10;;
45784;SDS011;31489;51.404;5.474;2023-09-12T01:48:21;16.00;;;13.95;;
45784;SDS011;31489;51.404;5.474;2023-09-12T01:50:51;14.93;;;13.32;;
45784;SDS011;31489;51.404;5.474;2023-09-12T01:53:17;21.55;;;14.65;;
45784;SDS011;31489;51.404;5.474;2023-09-12T01:55:44;15.82;;;14.20;;
45784;SDS011;31489;51.404;5.474;2023-09-12T01:58:11;17.98;;;14.68;;
45784;SDS011;31489;51.404;5.474;2023-09-12T02:00:38;17.67;;;13.45;;
45784;SDS011;31489;51.404;5.474;2023-09-12T02:03:05;17.52;;;13.63;;
45784;SDS011;31489;51.404;5.474;2023-09-12T02:05:30;16.55;;;13.82;;
45784;SDS011;31489;51.404;5.474;2023-09-12T02:07:56;16.33;;;13.63;;
45784;SDS011;31489;51.404;5.474;2023-09-12T02:10:24;15.68;;;13.27;;
45784;SDS011;31489;51.404;5.474;2023-09-12T02:12:49;18.40;;;13.65;;
45784;SDS011;31489;51.404;5.474;2023-09-12T02:15:15;16.33;;;13.10;;
45784;SDS011;31489;51.404;5.474;2023-09-12T02:17:41;19.05;;;14.40;;
45784;SDS011;31489;51.404;5.474;2023-09-12T02:20:07;15.13;;;13.23;;
45784;SDS011;31489;51.404;5.474;2023-09-12T02:22:34;17.13;;;14.13;;
45784;SDS011;31489;51.404;5.474;2023-09-12T02:24:59;15.65;;;12.82;;
45784;SDS011;31489;51.404;5.474;2023-09-12T02:27:25;14.48;;;12.82;;
45784;SDS011;31489;51.404;5.474;2023-09-12T02:29:51;18.08;;;14.05;;
45784;SDS011;31489;51.404;5.474;2023-09-12T02:32:16;15.38;;;12.38;;
45784;SDS011;31489;51.404;5.474;2023-09-12T02:34:42;17.15;;;13.38;;
45784;SDS011;31489;51.404;5.474;2023-09-12T02:37:07;20.10;;;14.68;;
45784;SDS011;31489;51.404;5.474;2023-09-12T02:39:33;16.98;;;13.27;;
45784;SDS011;31489;51.404;5.474;2023-09-12T02:41:59;15.68;;;12.98;;
45784;SDS011;31489;51.404;5.474;2023-09-12T02:44:24;15.60;;;13.95;;
45784;SDS011;31489;51.404;5.474;2023-09-12T02:46:50;21.90;;;12.27;;
45784;SDS011;31489;51.404;5.474;2023-09-12T02:49:16;17.60;;;12.90;;
45784;SDS011;31489;51.404;5.474;2023-09-12T02:51:41;16.27;;;13.07;;
45784;SDS011;31489;51.404;5.474;2023-09-12T02:54:07;15.23;;;12.68;;
45784;SDS011;31489;51.404;5.474;2023-09-12T02:56:33;20.15;;;12.52;;
45784;SDS011;31489;51.404;5.474;2023-09-12T02:58:59;14.00;;;12.25;;
45784;SDS011;31489;51.404;5.474;2023-09-12T03:01:25;14.90;;;12.90;;
45784;SDS011;31489;51.404;5.474;2023-09-12T03:03:53;14.77;;;13.23;;
45784;SDS011;31489;51.404;5.474;2023-09-12T03:06:19;15.60;;;12.30;;
45784;SDS011;31489;51.404;5.474;2023-09-12T03:08:45;21.05;;;13.02;;
45784;SDS011;31489;51.404;5.474;2023-09-12T03:11:12;17.05;;;12.93;;
45784;SDS011;31489;51.404;5.474;2023-09-12T03:13:38;13.45;;;12.10;;
45784;SDS011;31489;51.404;5.474;2023-09-12T03:16:09;18.00;;;13.05;;
45784;SDS011;31489;51.404;5.474;2023-09-12T03:18:35;16.30;;;12.00;;
45784;SDS011;31489;51.404;5.474;2023-09-12T03:21:00;13.85;;;12.40;;
45784;SDS011;31489;51.404;5.474;2023-09-12T03:23:26;15.50;;;12.55;;
45784;SDS011;31489;51.404;5.474;2023-09-12T03:25:52;16.75;;;12.95;;
45784;SDS011;31489;51.404;5.474;2023-09-12T03:28:18;14.98;;;13.02;;
45784;SDS011;31489;51.404;5.474;2023-09-12T03:30:43;14.32;;;12.32;;
45784;SDS011;31489;51.404;5.474;2023-09-12T03:33:09;18.10;;;12.13;;
45784;SDS011;31489;51.404;5.474;2023-09-12T03:35:34;16.35;;;12.60;;
45784;SDS011;31489;51.404;5.474;2023-09-12T03:38:00;15.13;;;13.02;;
45784;SDS011;31489;51.404;5.474;2023-09-12T03:40:29;13.90;;;12.43;;
45784;SDS011;31489;51.404;5.474;2023-09-12T03:42:55;19.20;;;12.70;;
45784;SDS011;31489;51.404;5.474;2023-09-12T03:45:21;14.23;;;12.65;;
45784;SDS011;31489;51.404;5.474;2023-09-12T03:47:47;17.27;;;13.13;;
45784;SDS011;31489;51.404;5.474;2023-09-12T03:50:13;15.75;;;12.25;;
45784;SDS011;31489;51.404;5.474;2023-09-12T03:52:41;15.65;;;13.20;;
45784;SDS011;31489;51.404;5.474;2023-09-12T03:55:07;16.27;;;12.68;;
45784;SDS011;31489;51.404;5.474;2023-09-12T03:57:33;16.58;;;12.40;;
45784;SDS011;31489;51.404;5.474;2023-09-12T03:59:59;15.52;;;13.88;;
45784;SDS011;31489;51.404;5.474;2023-09-12T04:02:24;16.85;;;13.43;;
45784;SDS011;31489;51.404;5.474;2023-09-12T04:04:50;16.10;;;13.45;;
45784;SDS011;31489;51.404;5.474;2023-09-12T04:07:16;16.02;;;12.85;;
45784;SDS011;31489;51.404;5.474;2023-09-12T04:09:42;18.60;;;13.60;;
45784;SDS011;31489;51.404;5.474;2023-09-12T04:12:11;16.45;;;12.52;;
45784;SDS011;31489;51.404;5.474;2023-09-12T04:14:36;13.18;;;11.90;;
45784;SDS011;31489;51.404;5.474;2023-09-12T04:17:02;18.42;;;13.65;;
45784;SDS011;31489;51.404;5.474;2023-09-12T04:19:29;16.85;;;13.38;;
45784;SDS011;31489;51.404;5.474;2023-09-12T04:21:55;15.27;;;13.13;;
45784;SDS011;31489;51.404;5.474;2023-09-12T04:24:21;17.10;;;13.80;;
45784;SDS011;31489;51.404;5.474;2023-09-12T04:26:47;15.23;;;13.63;;
45784;SDS011;31489;51.404;5.474;2023-09-12T04:29:12;16.45;;;13.45;;
45784;SDS011;31489;51.404;5.474;2023-09-12T04:31:38;15.07;;;13.50;;
45784;SDS011;31489;51.404;5.474;2023-09-12T04:34:06;16.73;;;13.70;;
45784;SDS011;31489;51.404;5.474;2023-09-12T04:36:32;17.23;;;13.50;;
45784;SDS011;31489;51.404;5.474;2023-09-12T04:38:57;15.98;;;13.73;;
45784;SDS011;31489;51.404;5.474;2023-09-12T04:41:24;14.45;;;12.93;;
45784;SDS011;31489;51.404;5.474;2023-09-12T04:43:49;18.98;;;13.80;;
45784;SDS011;31489;51.404;5.474;2023-09-12T04:46:15;18.70;;;13.90;;
45784;SDS011;31489;51.404;5.474;2023-09-12T04:48:41;15.27;;;13.05;;
45784;SDS011;31489;51.404;5.474;2023-09-12T04:51:06;16.20;;;14.50;;
45784;SDS011;31489;51.404;5.474;2023-09-12T04:53:32;16.73;;;14.27;;
45784;SDS011;31489;51.404;5.474;2023-09-12T04:56:03;20.30;;;16.05;;
45784;SDS011;31489;51.404;5.474;2023-09-12T04:58:31;16.58;;;13.90;;
45784;SDS011;31489;51.404;5.474;2023-09-12T05:01:05;17.20;;;14.50;;
45784;SDS011;31489;51.404;5.474;2023-09-12T05:03:31;16.45;;;13.88;;
45784;SDS011;31489;51.404;5.474;2023-09-12T05:05:58;15.65;;;13.07;;
45784;SDS011;31489;51.404;5.474;2023-09-12T05:08:24;18.23;;;15.32;;
45784;SDS011;31489;51.404;5.474;2023-09-12T05:10:50;19.75;;;15.23;;
45784;SDS011;31489;51.404;5.474;2023-09-12T05:13:15;17.05;;;14.80;;
45784;SDS011;31489;51.404;5.474;2023-09-12T05:15:43;18.23;;;15.20;;
45784;SDS011;31489;51.404;5.474;2023-09-12T05:18:09;22.52;;;15.20;;
45784;SDS011;31489;51.404;5.474;2023-09-12T05:20:35;16.33;;;13.35;;
45784;SDS011;31489;51.404;5.474;2023-09-12T05:23:01;16.25;;;14.57;;
45784;SDS011;31489;51.404;5.474;2023-09-12T05:25:27;15.82;;;13.50;;
45784;SDS011;31489;51.404;5.474;2023-09-12T05:27:54;18.35;;;15.05;;
45784;SDS011;31489;51.404;5.474;2023-09-12T05:30:19;15.82;;;14.13;;
45784;SDS011;31489;51.404;5.474;2023-09-12T05:32:45;16.92;;;14.25;;
45784;SDS011;31489;51.404;5.474;2023-09-12T05:35:11;19.38;;;15.05;;
45784;SDS011;31489;51.404;5.474;2023-09-12T05:37:36;16.55;;;14.38;;
45784;SDS011;31489;51.404;5.474;2023-09-12T05:40:02;15.13;;;13.55;;
45784;SDS011;31489;51.404;5.474;2023-09-12T05:42:28;17.50;;;14.07;;
45784;SDS011;31489;51.404;5.474;2023-09-12T05:44:54;14.68;;;13.13;;
45784;SDS011;31489;51.404;5.474;2023-09-12T05:47:23;16.80;;;14.68;;
45784;SDS011;31489;51.404;5.474;2023-09-12T05:49:49;16.08;;;14.38;;
45784;SDS011;31489;51.404;5.474;2023-09-12T05:52:15;21.25;;;14.02;;
45784;SDS011;31489;51.404;5.474;2023-09-12T05:54:40;15.60;;;14.00;;
45784;SDS011;31489;51.404;5.474;2023-09-12T05:57:07;16.70;;;14.93;;
45784;SDS011;31489;51.404;5.474;2023-09-12T05:59:36;16.70;;;14.93;;
45784;SDS011;31489;51.404;5.474;2023-09-12T06:02:03;18.52;;;13.95;;
45784;SDS011;31489;51.404;5.474;2023-09-12T06:04:29;15.77;;;13.98;;
45784;SDS011;31489;51.404;5.474;2023-09-12T06:06:55;19.08;;;14.73;;
45784;SDS011;31489;51.404;5.474;2023-09-12T06:09:21;17.42;;;13.20;;
45784;SDS011;31489;51.404;5.474;2023-09-12T06:11:49;18.35;;;16.25;;
45784;SDS011;31489;51.404;5.474;2023-09-12T06:14:15;17.90;;;15.13;;
45784;SDS011;31489;51.404;5.474;2023-09-12T06:16:41;20.23;;;15.57;;
45784;SDS011;31489;51.404;5.474;2023-09-12T06:19:07;20.40;;;15.23;;
45784;SDS011;31489;51.404;5.474;2023-09-12T06:21:33;19.70;;;16.08;;
45784;SDS011;31489;51.404;5.474;2023-09-12T06:24:15;19.58;;;17.00;;
45784;SDS011;31489;51.404;5.474;2023-09-12T06:26:46;18.40;;;16.45;;
45784;SDS011;31489;51.404;5.474;2023-09-12T06:29:12;19.15;;;16.48;;
45784;SDS011;31489;51.404;5.474;2023-09-12T06:31:39;19.48;;;16.27;;
45784;SDS011;31489;51.404;5.474;2023-09-12T06:34:06;20.92;;;16.65;;
45784;SDS011;31489;51.404;5.474;2023-09-12T06:36:32;20.15;;;17.42;;
45784;SDS011;31489;51.404;5.474;2023-09-12T06:38:58;19.65;;;17.55;;
45784;SDS011;31489;51.404;5.474;2023-09-12T06:41:25;22.58;;;17.75;;
45784;SDS011;31489;51.404;5.474;2023-09-12T06:43:51;19.15;;;17.05;;
45784;SDS011;31489;51.404;5.474;2023-09-12T06:46:17;22.25;;;15.93;;
45784;SDS011;31489;51.404;5.474;2023-09-12T06:48:43;23.10;;;16.80;;
45784;SDS011;31489;51.404;5.474;2023-09-12T06:51:10;16.65;;;14.85;;
45784;SDS011;31489;51.404;5.474;2023-09-12T06:53:36;18.80;;;16.02;;
45784;SDS011;31489;51.404;5.474;2023-09-12T06:56:05;21.08;;;16.77;;
45784;SDS011;31489;51.404;5.474;2023-09-12T06:58:31;19.25;;;17.05;;
45784;SDS011;31489;51.404;5.474;2023-09-12T07:01:03;16.90;;;14.55;;
45784;SDS011;31489;51.404;5.474;2023-09-12T07:03:31;18.73;;;14.88;;
45784;SDS011;31489;51.404;5.474;2023-09-12T07:05:57;19.27;;;15.95;;
45784;SDS011;31489;51.404;5.474;2023-09-12T07:08:23;18.95;;;16.08;;
45784;SDS011;31489;51.404;5.474;2023-09-12T07:10:49;19.08;;;16.90;;
45784;SDS011;31489;51.404;5.474;2023-09-12T07:13:14;19.88;;;16.48;;
45784;SDS011;31489;51.404;5.474;2023-09-12T07:15:40;19.40;;;16.17;;
45784;SDS011;31489;51.404;5.474;2023-09-12T07:18:06;18.55;;;16.13;;
45784;SDS011;31489;51.404;5.474;2023-09-12T07:20:34;24.65;;;17.15;;
45784;SDS011;31489;51.404;5.474;2023-09-12T07:23:00;23.38;;;17.73;;
45784;SDS011;31489;51.404;5.474;2023-09-12T07:25:26;22.17;;;17.10;;
45784;SDS011;31489;51.404;5.474;2023-09-12T07:27:51;19.40;;;15.32;;
45784;SDS011;31489;51.404;5.474;2023-09-12T07:30:17;22.58;;;17.27;;
45784;SDS011;31489;51.404;5.474;2023-09-12T07:32:44;18.50;;;16.25;;
45784;SDS011;31489;51.404;5.474;2023-09-12T07:35:09;19.92;;;16.80;;
45784;SDS011;31489;51.404;5.474;2023-09-12T07:37:35;18.33;;;16.23;;
45784;SDS011;31489;51.404;5.474;2023-09-12T07:40:01;18.00;;;15.90;;
45784;SDS011;31489;51.404;5.474;2023-09-12T07:42:34;19.13;;;15.00;;
45784;SDS011;31489;51.404;5.474;2023-09-12T07:45:00;20.48;;;16.23;;
45784;SDS011;31489;51.404;5.474;2023-09-12T07:47:28;23.42;;;16.50;;
45784;SDS011;31489;51.404;5.474;2023-09-12T07:49:53;20.05;;;15.77;;
45784;SDS011;31489;51.404;5.474;2023-09-12T07:52:19;20.35;;;16.25;;
45784;SDS011;31489;51.404;5.474;2023-09-12T07:54:45;22.45;;;19.08;;
45784;SDS011;31489;51.404;5.474;2023-09-12T07:57:11;20.70;;;17.10;;
45784;SDS011;31489;51.404;5.474;2023-09-12T07:59:37;18.67;;;15.90;;
45784;SDS011;31489;51.404;5.474;2023-09-12T08:02:02;21.08;;;15.10;;
45784;SDS011;31489;51.404;5.474;2023-09-12T08:04:28;18.20;;;15.73;;
45784;SDS011;31489;51.404;5.474;2023-09-12T08:06:54;19.67;;;15.35;;
45784;SDS011;31489;51.404;5.474;2023-09-12T08:09:20;18.52;;;14.27;;
45784;SDS011;31489;51.404;5.474;2023-09-12T08:11:45;16.85;;;14.25;;
45784;SDS011;31489;51.404;5.474;2023-09-12T08:14:11;15.85;;;13.73;;
45784;SDS011;31489;51.404;5.474;2023-09-12T08:16:37;16.23;;;12.35;;
45784;SDS011;31489;51.404;5.474;2023-09-12T08:19:03;14.27;;;12.65;;
45784;SDS011;31489;51.404;5.474;2023-09-12T08:21:29;14.63;;;12.23;;
45784;SDS011;31489;51.404;5.474;2023-09-12T08:23:58;13.70;;;11.13;;
45784;SDS011;31489;51.404;5.474;2023-09-12T08:26:23;15.48;;;10.40;;
45784;SDS011;31489;51.404;5.474;2023-09-12T08:28:49;15.70;;;10.52;;
45784;SDS011;31489;51.404;5.474;2023-09-12T08:31:14;12.88;;;10.20;;
45784;SDS011;31489;51.404;5.474;2023-09-12T08:33:40;13.20;;;10.30;;
45784;SDS011;31489;51.404;5.474;2023-09-12T08:36:06;11.85;;;9.75;;
45784;SDS011;31489;51.404;5.474;2023-09-12T08:38:31;12.15;;;9.57;;
45784;SDS011;31489;51.404;5.474;2023-09-12T08:40:57;9.95;;;8.70;;
45784;SDS011;31489;51.404;5.474;2023-09-12T08:43:22;10.88;;;8.00;;
45784;SDS011;31489;51.404;5.474;2023-09-12T08:45:48;11.32;;;7.70;;
45784;SDS011;31489;51.404;5.474;2023-09-12T08:48:15;8.95;;;7.18;;
45784;SDS011;31489;51.404;5.474;2023-09-12T08:50:41;9.23;;;6.95;;
45784;SDS011;31489;51.404;5.474;2023-09-12T08:53:07;9.10;;;7.40;;
45784;SDS011;31489;51.404;5.474;2023-09-12T08:55:32;12.35;;;8.60;;
45784;SDS011;31489;51.404;5.474;2023-09-12T08:58:02;11.52;;;8.20;;
45784;SDS011;31489;51.404;5.474;2023-09-12T09:00:28;8.35;;;7.45;;
45784;SDS011;31489;51.404;5.474;2023-09-12T09:02:55;8.75;;;7.28;;
45784;SDS011;31489;51.404;5.474;2023-09-12T09:05:21;8.52;;;7.03;;
45784;SDS011;31489;51.404;5.474;2023-09-12T09:07:48;6.13;;;5.38;;
45784;SDS011;31489;51.404;5.474;2023-09-12T09:10:15;7.18;;;5.60;;
45784;SDS011;31489;51.404;5.474;2023-09-12T09:12:43;7.60;;;5.35;;
45784;SDS011;31489;51.404;5.474;2023-09-12T09:15:23;7.63;;;6.55;;
45784;SDS011;31489;51.404;5.474;2023-09-12T09:17:51;10.40;;;5.88;;
45784;SDS011;31489;51.404;5.474;2023-09-12T09:20:25;7.28;;;5.05;;
45784;SDS011;31489;51.404;5.474;2023-09-12T09:22:59;6.70;;;5.80;;
45784;SDS011;31489;51.404;5.474;2023-09-12T09:25:34;8.30;;;5.38;;
45784;SDS011;31489;51.404;5.474;2023-09-12T09:28:19;5.60;;;5.10;;
45784;SDS011;31489;51.404;5.474;2023-09-12T09:30:46;6.15;;;5.05;;
45784;SDS011;31489;51.404;5.474;2023-09-12T09:33:13;6.40;;;5.63;;
45784;SDS011;31489;51.404;5.474;2023-09-12T09:35:43;9.02;;;6.35;;
45784;SDS011;31489;51.404;5.474;2023-09-12T09:38:12;7.40;;;5.43;;
45784;SDS011;31489;51.404;5.474;2023-09-12T09:40:42;6.20;;;5.60;;
45784;SDS011;31489;51.404;5.474;2023-09-12T09:43:08;6.90;;;5.35;;
45784;SDS011;31489;51.404;5.474;2023-09-12T09:45:42;6.18;;;5.57;;
45784;SDS011;31489;51.404;5.474;2023-09-12T09:48:17;6.00;;;4.90;;
45784;SDS011;31489;51.404;5.474;2023-09-12T09:50:44;6.60;;;5.57;;
45784;SDS011;31489;51.404;5.474;2023-09-12T09:53:09;8.10;;;5.32;;
45784;SDS011;31489;51.404;5.474;2023-09-12T09:55:35;14.00;;;7.03;;
45784;SDS011;31489;51.404;5.474;2023-09-12T09:58:02;10.10;;;8.10;;
45784;SDS011;31489;51.404;5.474;2023-09-12T10:00:30;11.40;;;8.30;;
45784;SDS011;31489;51.404;5.474;2023-09-12T10:03:05;14.13;;;8.80;;
45784;SDS011;31489;51.404;5.474;2023-09-12T10:05:33;12.20;;;9.18;;
45784;SDS011;31489;51.404;5.474;2023-09-12T10:08:03;12.05;;;10.05;;
45784;SDS011;31489;51.404;5.474;2023-09-12T10:10:34;12.50;;;9.93;;
45784;SDS011;31489;51.404;5.474;2023-09-12T10:13:03;14.63;;;10.60;;
45784;SDS011;31489;51.404;5.474;2023-09-12T10:15:30;14.20;;;11.07;;
45784;SDS011;31489;51.404;5.474;2023-09-12T10:17:58;12.35;;;10.20;;
45784;SDS011;31489;51.404;5.474;2023-09-12T10:20:49;12.98;;;9.82;;
45784;SDS011;31489;51.404;5.474;2023-09-12T10:23:39;14.40;;;11.30;;
45784;SDS011;31489;51.404;5.474;2023-09-12T10:26:13;11.07;;;9.30;;
45784;SDS011;31489;51.404;5.474;2023-09-12T10:28:42;13.63;;;10.95;;
45784;SDS011;31489;51.404;5.474;2023-09-12T10:31:08;13.13;;;8.73;;
45784;SDS011;31489;51.404;5.474;2023-09-12T10:33:36;13.43;;;11.25;;
45784;SDS011;31489;51.404;5.474;2023-09-12T10:36:02;12.57;;;9.52;;
45784;SDS011;31489;51.404;5.474;2023-09-12T10:38:30;13.63;;;11.02;;
45784;SDS011;31489;51.404;5.474;2023-09-12T10:41:00;12.43;;;10.57;;
45784;SDS011;31489;51.404;5.474;2023-09-12T10:43:28;10.80;;;9.65;;
45784;SDS011;31489;51.404;5.474;2023-09-12T10:45:58;12.43;;;9.15;;
45784;SDS011;31489;51.404;5.474;2023-09-12T10:48:27;12.13;;;10.15;;
45784;SDS011;31489;51.404;5.474;2023-09-12T10:50:55;11.30;;;9.23;;
45784;SDS011;31489;51.404;5.474;2023-09-12T10:53:23;10.70;;;9.13;;
45784;SDS011;31489;51.404;5.474;2023-09-12T10:56:00;11.02;;;9.93;;
45784;SDS011;31489;51.404;5.474;2023-09-12T10:59:26;8.77;;;6.97;;
45784;SDS011;31489;51.404;5.474;2023-09-12T11:01:29;9.93;;;8.85;;
45784;SDS011;31489;51.404;5.474;2023-09-12T11:03:56;9.52;;;8.20;;
45784;SDS011;31489;51.404;5.474;2023-09-12T11:06:31;13.18;;;10.55;;
45784;SDS011;31489;51.404;5.474;2023-09-12T11:14:08;11.88;;;8.80;;
45784;SDS011;31489;51.404;5.474;2023-09-12T11:16:33;11.32;;;8.38;;
45784;SDS011;31489;51.404;5.474;2023-09-12T11:19:20;12.32;;;10.07;;
45784;SDS011;31489;51.404;5.474;2023-09-12T11:21:53;13.35;;;10.02;;
45784;SDS011;31489;51.404;5.474;2023-09-12T11:24:21;12.85;;;10.95;;
45784;SDS011;31489;51.404;5.474;2023-09-12T11:29:39;11.15;;;9.48;;
45784;SDS011;31489;51.404;5.474;2023-09-12T11:32:05;10.82;;;8.95;;
45784;SDS011;31489;51.404;5.474;2023-09-12T11:34:36;14.65;;;10.38;;
45784;SDS011;31489;51.404;5.474;2023-09-12T11:37:02;14.70;;;10.27;;
45784;SDS011;31489;51.404;5.474;2023-09-12T11:39:31;11.65;;;9.02;;
45784;SDS011;31489;51.404;5.474;2023-09-12T11:41:59;10.40;;;9.30;;
45784;SDS011;31489;51.404;5.474;2023-09-12T11:44:26;13.68;;;11.35;;
45784;SDS011;31489;51.404;5.474;2023-09-12T11:46:53;15.25;;;10.85;;
45784;SDS011;31489;51.404;5.474;2023-09-12T11:49:28;14.85;;;11.38;;
45784;SDS011;31489;51.404;5.474;2023-09-12T11:52:00;12.48;;;8.57;;
45784;SDS011;31489;51.404;5.474;2023-09-12T11:54:25;12.00;;;9.40;;
45784;SDS011;31489;51.404;5.474;2023-09-12T11:56:52;13.07;;;8.65;;
45784;SDS011;31489;51.404;5.474;2023-09-12T11:59:25;16.70;;;12.77;;
45784;SDS011;31489;51.404;5.474;2023-09-12T12:01:52;12.32;;;7.80;;
45784;SDS011;31489;51.404;5.474;2023-09-12T12:04:20;12.82;;;9.65;;
45784;SDS011;31489;51.404;5.474;2023-09-12T12:06:52;15.02;;;9.52;;
45784;SDS011;31489;51.404;5.474;2023-09-12T12:09:18;9.82;;;7.63;;
45784;SDS011;31489;51.404;5.474;2023-09-12T12:11:48;8.50;;;6.22;;
45784;SDS011;31489;51.404;5.474;2023-09-12T12:14:14;12.05;;;6.68;;
45784;SDS011;31489;51.404;5.474;2023-09-12T12:16:44;8.50;;;7.13;;
45784;SDS011;31489;51.404;5.474;2023-09-12T12:19:12;10.95;;;7.63;;
45784;SDS011;31489;51.404;5.474;2023-09-12T12:21:41;11.85;;;8.45;;
45784;SDS011;31489;51.404;5.474;2023-09-12T12:24:07;9.25;;;7.55;;
45784;SDS011;31489;51.404;5.474;2023-09-12T12:26:40;8.07;;;6.82;;
45784;SDS011;31489;51.404;5.474;2023-09-12T12:29:07;10.10;;;7.70;;
45784;SDS011;31489;51.404;5.474;2023-09-12T12:31:35;8.55;;;6.20;;
45784;SDS011;31489;51.404;5.474;2023-09-12T12:34:01;8.77;;;6.20;;
45784;SDS011;31489;51.404;5.474;2023-09-12T12:36:26;11.85;;;7.95;;
45784;SDS011;31489;51.404;5.474;2023-09-12T12:38:52;7.03;;;5.97;;
45784;SDS011;31489;51.404;5.474;2023-09-12T12:41:25;9.27;;;7.38;;
45784;SDS011;31489;51.404;5.474;2023-09-12T12:43:53;8.00;;;6.57;;
45784;SDS011;31489;51.404;5.474;2023-09-12T12:46:23;10.50;;;8.20;;
45784;SDS011;31489;51.404;5.474;2023-09-12T12:48:49;9.27;;;8.30;;
45784;SDS011;31489;51.404;5.474;2023-09-12T12:53:48;9.48;;;7.32;;
45784;SDS011;31489;51.404;5.474;2023-09-12T12:56:19;8.25;;;6.90;;
45784;SDS011;31489;51.404;5.474;2023-09-12T13:01:17;8.57;;;6.22;;
45784;SDS011;31489;51.404;5.474;2023-09-12T13:03:43;7.28;;;6.32;;
45784;SDS011;31489;51.404;5.474;2023-09-12T13:06:10;7.53;;;6.50;;
45784;SDS011;31489;51.404;5.474;2023-09-12T13:08:42;8.30;;;6.60;;
45784;SDS011;31489;51.404;5.474;2023-09-12T13:11:11;8.40;;;6.50;;
45784;SDS011;31489;51.404;5.474;2023-09-12T13:13:38;8.30;;;5.82;;
45784;SDS011;31489;51.404;5.474;2023-09-12T13:16:05;7.65;;;6.45;;
45784;SDS011;31489;51.404;5.474;2023-09-12T13:18:34;6.53;;;5.28;;
45784;SDS011;31489;51.404;5.474;2023-09-12T13:21:04;7.28;;;4.55;;
45784;SDS011;31489;51.404;5.474;2023-09-12T13:23:30;9.60;;;7.13;;
45784;SDS011;31489;51.404;5.474;2023-09-12T13:25:58;8.55;;;6.00;;
45784;SDS011;31489;51.404;5.474;2023-09-12T13:28:24;7.97;;;5.97;;
45784;SDS011;31489;51.404;5.474;2023-09-12T13:30:51;7.22;;;5.70;;
45784;SDS011;31489;51.404;5.474;2023-09-12T13:33:22;9.40;;;6.38;;
45784;SDS011;31489;51.404;5.474;2023-09-12T13:35:48;9.60;;;5.70;;
45784;SDS011;31489;51.404;5.474;2023-09-12T13:38:14;7.65;;;5.13;;
45784;SDS011;31489;51.404;5.474;2023-09-12T13:40:42;8.73;;;5.88;;
45784;SDS011;31489;51.404;5.474;2023-09-12T13:43:08;6.43;;;5.75;;
45784;SDS011;31489;51.404;5.474;2023-09-12T13:45:34;9.13;;;5.20;;
45784;SDS011;31489;51.404;5.474;2023-09-12T13:48:04;7.35;;;4.95;;
45784;SDS011;31489;51.404;5.474;2023-09-12T13:50:31;5.88;;;4.47;;
45784;SDS011;31489;51.404;5.474;2023-09-12T13:53:01;7.88;;;4.80;;
45784;SDS011;31489;51.404;5.474;2023-09-12T13:55:35;5.60;;;4.40;;
45784;SDS011;31489;51.404;5.474;2023-09-12T13:58:04;8.15;;;6.07;;
45784;SDS011;31489;51.404;5.474;2023-09-12T14:00:31;6.07;;;4.93;;
45784;SDS011;31489;51.404;5.474;2023-09-12T14:02:58;5.97;;;5.25;;
45784;SDS011;31489;51.404;5.474;2023-09-12T14:05:26;6.80;;;4.90;;
45784;SDS011;31489;51.404;5.474;2023-09-12T14:07:53;5.70;;;4.93;;
45784;SDS011;31489;51.404;5.474;2023-09-12T14:10:18;6.13;;;4.82;;
45784;SDS011;31489;51.404;5.474;2023-09-12T14:12:44;5.30;;;4.55;;
45784;SDS011;31489;51.404;5.474;2023-09-12T14:15:11;5.40;;;4.50;;
45784;SDS011;31489;51.404;5.474;2023-09-12T14:17:37;6.43;;;3.75;;
45784;SDS011;31489;51.404;5.474;2023-09-12T14:20:03;4.80;;;4.22;;
45784;SDS011;31489;51.404;5.474;2023-09-12T14:22:29;10.30;;;4.63;;
45784;SDS011;31489;51.404;5.474;2023-09-12T14:24:54;6.97;;;4.90;;
45784;SDS011;31489;51.404;5.474;2023-09-12T14:27:20;5.72;;;4.78;;
45784;SDS011;31489;51.404;5.474;2023-09-12T14:29:46;4.88;;;4.43;;
45784;SDS011;31489;51.404;5.474;2023-09-12T14:32:14;5.88;;;4.90;;
45784;SDS011;31489;51.404;5.474;2023-09-12T14:34:42;8.27;;;4.95;;
45784;SDS011;31489;51.404;5.474;2023-09-12T14:37:10;6.85;;;4.32;;
45784;SDS011;31489;51.404;5.474;2023-09-12T14:39:36;6.15;;;4.82;;
45784;SDS011;31489;51.404;5.474;2023-09-12T14:42:02;7.95;;;5.60;;
45784;SDS011;31489;51.404;5.474;2023-09-12T14:44:33;6.72;;;5.40;;
45784;SDS011;31489;51.404;5.474;2023-09-12T14:46:58;7.82;;;6.07;;